createdAt,value
2016-11-12T00:01:19.311Z,18.91
2016-11-12T00:06:19.248Z,18.87
2016-11-12T00:11:19.193Z,18.82
2016-11-12T00:16:19.135Z,18.76
2016-11-12T00:21:19.083Z,18.76
2016-11-12T00:26:19.034Z,18.74
2016-11-12T00:31:18.366Z,18.63
2016-11-12T00:36:18.614Z,18.56
2016-11-12T00:41:18.566Z,18.49
2016-11-12T00:46:18.817Z,18.44
2016-11-12T00:51:18.757Z,18.42
2016-11-12T00:56:18.703Z,18.41
2016-11-12T01:01:18.033Z,18.34
2016-11-12T01:06:18.576Z,18.24
2016-11-12T01:11:18.516Z,18.29
2016-11-12T01:16:18.465Z,18.19
2016-11-12T01:21:18.406Z,18.17
2016-11-12T01:26:18.340Z,18.11
2016-11-12T01:31:17.984Z,18.11
2016-11-12T01:36:18.224Z,18.01
2016-11-12T01:41:17.866Z,17.99
2016-11-12T01:46:17.798Z,18.01
2016-11-12T01:51:18.042Z,17.88
2016-11-12T01:56:17.686Z,17.94
2016-11-12T02:01:17.924Z,17.96
2016-11-12T02:06:17.878Z,17.95
2016-11-12T02:11:17.800Z,17.87
2016-11-12T02:16:17.190Z,17.88
2016-11-12T02:21:17.707Z,17.87
2016-11-12T02:26:17.628Z,17.87
2016-11-12T02:31:17.568Z,17.74
2016-11-12T02:36:17.517Z,17.84
2016-11-12T02:41:17.461Z,17.81
2016-11-12T02:46:17.389Z,17.74
2016-11-12T02:51:17.325Z,17.62
2016-11-12T02:56:16.961Z,17.71
2016-11-12T03:01:16.898Z,17.68
2016-11-12T03:06:16.836Z,17.66
2016-11-12T03:11:17.080Z,17.62
2016-11-12T03:16:17.016Z,17.63
2016-11-12T03:21:16.655Z,17.52
2016-11-12T03:26:16.592Z,17.58
2016-11-12T03:31:16.832Z,17.5
2016-11-12T03:36:16.782Z,17.45
2016-11-12T03:41:16.717Z,17.52
2016-11-12T03:46:16.039Z,17.54
2016-11-12T03:51:16.589Z,17.55
2016-11-12T03:56:16.221Z,17.49
2016-11-12T04:01:16.467Z,17.43
2016-11-12T04:06:16.099Z,17.47
2016-11-12T04:11:16.034Z,17.39
2016-11-12T04:16:16.278Z,17.36
2016-11-12T04:21:15.909Z,17.38
2016-11-12T04:26:16.148Z,17.31
2016-11-12T04:31:16.092Z,17.27
2016-11-12T04:36:15.753Z,17.25
2016-11-12T04:41:15.649Z,17.24
2016-11-12T04:46:15.593Z,17.22
2016-11-12T04:51:15.533Z,17.15
2016-11-12T04:56:15.473Z,17.15
2016-11-12T05:01:15.707Z,17.18
2016-11-12T05:06:15.644Z,17.15
2016-11-12T05:11:15.273Z,17.06
2016-11-12T05:16:15.213Z,17.06
2016-11-12T05:21:15.147Z,17
2016-11-12T05:26:15.394Z,17.07
2016-11-12T05:31:14.716Z,16.99
2016-11-12T05:36:14.962Z,17.02
2016-11-12T05:41:15.205Z,17.02
2016-11-12T05:46:14.827Z,16.85
2016-11-12T05:51:15.070Z,16.9
2016-11-12T05:56:15.040Z,16.82
2016-11-12T06:01:14.953Z,16.91
2016-11-12T06:06:14.276Z,16.88
2016-11-12T06:11:14.823Z,16.82
2016-11-12T06:16:14.447Z,16.76
2016-11-12T06:21:14.683Z,16.8
2016-11-12T06:26:14.323Z,16.77
2016-11-12T06:31:14.554Z,16.84
2016-11-12T06:36:14.191Z,16.99
2016-11-12T06:41:14.451Z,17.3
2016-11-12T06:46:14.053Z,17.46
2016-11-12T06:51:13.993Z,17.68
2016-11-12T06:56:14.227Z,17.98
2016-11-12T07:01:13.869Z,18.21
2016-11-12T07:06:14.103Z,18.47
2016-11-12T07:11:14.034Z,18.75
2016-11-12T07:16:13.673Z,18.86
2016-11-12T07:21:13.612Z,18.97
2016-11-12T07:26:13.849Z,19.05
2016-11-12T07:31:13.482Z,19.02
2016-11-12T07:36:13.726Z,19.02
2016-11-12T07:41:13.670Z,19
2016-11-12T07:46:13.608Z,19.09
2016-11-12T07:51:13.236Z,19.05
2016-11-12T07:56:12.876Z,19.06
2016-11-12T08:01:13.428Z,19.19
2016-11-12T08:06:13.371Z,19.17
2016-11-12T08:11:13.004Z,19.23
2016-11-12T08:16:12.947Z,19.27
2016-11-12T08:21:12.893Z,19.3
2016-11-12T08:26:13.132Z,19.23
2016-11-12T08:31:12.773Z,19.3
2016-11-12T08:36:12.713Z,19.25
2016-11-12T08:41:12.953Z,19.31
2016-11-12T08:46:12.896Z,19.31
2016-11-12T08:51:12.840Z,19.25
2016-11-12T08:56:12.776Z,19.38
2016-11-12T09:01:12.424Z,19.28
2016-11-12T09:06:12.368Z,19.37
2016-11-12T09:11:12.625Z,19.35
2016-11-12T09:16:12.557Z,19.28
2016-11-12T09:21:11.891Z,19.42
2016-11-12T09:26:12.146Z,19.42
2016-11-12T09:31:12.083Z,19.55
2016-11-12T09:36:11.721Z,19.63
2016-11-12T09:41:11.968Z,19.61
2016-11-12T09:46:11.905Z,19.64
2016-11-12T09:51:11.853Z,19.83
2016-11-12T09:56:11.520Z,19.82
2016-11-12T10:01:11.736Z,19.86
2016-11-12T10:06:11.988Z,19.8
2016-11-12T10:11:11.326Z,19.85
2016-11-12T10:16:11.570Z,19.86
2016-11-12T10:21:11.816Z,19.75
2016-11-12T10:26:11.756Z,19.75
2016-11-12T10:31:11.706Z,19.74
2016-11-12T10:36:11.348Z,19.75
2016-11-12T10:41:11.287Z,19.74
2016-11-12T10:46:11.226Z,19.71
2016-11-12T10:51:11.484Z,19.8
2016-11-12T10:56:11.416Z,19.74
2016-11-12T11:01:11.055Z,19.65
2016-11-12T11:06:11.306Z,19.64
2016-11-12T11:11:10.947Z,19.65
2016-11-12T11:16:10.888Z,19.7
2016-11-12T11:21:11.127Z,19.75
2016-11-12T11:26:10.469Z,19.75
2016-11-12T11:31:11.016Z,19.72
2016-11-12T11:36:10.965Z,19.8
2016-11-12T11:41:10.603Z,19.85
2016-11-12T11:46:10.543Z,19.9
2016-11-12T11:51:10.177Z,20.07
2016-11-12T11:56:10.429Z,20.37
2016-11-12T12:01:10.721Z,20.37
2016-11-12T12:06:10.619Z,20.08
2016-11-12T12:11:10.553Z,19.97
2016-11-12T12:16:10.187Z,19.86
2016-11-12T12:21:10.430Z,19.74
2016-11-12T12:26:10.381Z,19.7
2016-11-12T12:31:10.328Z,19.68
2016-11-12T12:36:10.304Z,19.55
2016-11-12T12:41:10.207Z,19.55
2016-11-12T12:46:09.859Z,19.61
2016-11-12T12:51:10.132Z,19.57
2016-11-12T12:56:10.052Z,19.55
2016-11-12T13:01:09.680Z,19.55
2016-11-12T13:06:09.315Z,19.55
2016-11-12T13:11:09.562Z,19.55
2016-11-12T13:16:09.504Z,19.55
2016-11-12T13:21:09.760Z,19.52
2016-11-12T13:26:09.695Z,19.47
2016-11-12T13:31:09.030Z,19.49
2016-11-12T13:36:09.610Z,19.45
2016-11-12T13:41:09.217Z,19.45
2016-11-12T13:46:09.460Z,19.42
2016-11-12T13:51:09.103Z,19.28
2016-11-12T13:56:09.342Z,19.37
2016-11-12T14:01:08.989Z,19.3
2016-11-12T14:06:09.234Z,19.31
2016-11-12T14:11:08.863Z,19.28
2016-11-12T14:16:08.806Z,19.31
2016-11-12T14:21:09.062Z,19.35
2016-11-12T14:26:08.700Z,19.28
2016-11-12T14:31:08.945Z,19.31
2016-11-12T14:36:08.903Z,19.34
2016-11-12T14:41:08.827Z,19.31
2016-11-12T14:46:08.774Z,19.3
2016-11-12T14:51:08.412Z,19.25
2016-11-12T14:56:08.351Z,19.28
2016-11-12T15:01:08.297Z,19.3
2016-11-12T15:06:08.549Z,19.31
2016-11-12T15:11:08.499Z,19.31
2016-11-12T15:16:08.125Z,19.3
2016-11-12T15:21:08.383Z,19.31
2016-11-12T15:26:08.339Z,19.34
2016-11-12T15:31:08.270Z,19.32
2016-11-12T15:36:08.216Z,19.31
2016-11-12T15:41:07.863Z,19.25
2016-11-12T15:46:08.102Z,19.3
2016-11-12T15:51:08.061Z,19.25
2016-11-12T15:56:07.991Z,19.24
2016-11-12T16:01:07.629Z,19.23
2016-11-12T16:06:07.580Z,19.25
2016-11-12T16:11:07.518Z,19.25
2016-11-12T16:16:07.773Z,19.23
2016-11-12T16:21:07.415Z,19.23
2016-11-12T16:26:07.666Z,19.17
2016-11-12T16:31:07.308Z,19.3
2016-11-12T16:36:07.548Z,19.3
2016-11-12T16:41:07.506Z,19.47
2016-11-12T16:46:07.146Z,19.72
2016-11-12T16:51:07.103Z,20.05
2016-11-12T16:56:07.346Z,20.26
2016-11-12T17:01:07.002Z,20.41
2016-11-12T17:06:07.234Z,20.49
2016-11-12T17:11:06.880Z,20.46
2016-11-12T17:16:06.829Z,20.44
2016-11-12T17:21:06.769Z,20.37
2016-11-12T17:26:07.041Z,20.37
2016-11-12T17:31:06.371Z,20.35
2016-11-12T17:36:06.926Z,20.38
2016-11-12T17:41:06.267Z,20.35
2016-11-12T17:46:06.263Z,20.34
2016-11-12T17:51:06.462Z,20.35
2016-11-12T17:56:07.163Z,20.42
2016-11-12T18:01:06.663Z,20.44
2016-11-12T18:06:06.311Z,20.41
2016-11-12T18:11:05.951Z,20.44
2016-11-12T18:16:05.918Z,20.44
2016-11-12T18:21:06.158Z,20.38
2016-11-12T18:26:06.413Z,20.46
2016-11-12T18:31:06.360Z,20.42
2016-11-12T18:36:06.308Z,20.35
2016-11-12T18:41:06.258Z,20.38
2016-11-12T18:46:05.896Z,20.35
2016-11-12T18:51:06.160Z,20.35
2016-11-12T18:56:05.823Z,20.3
2016-11-12T19:01:05.499Z,20.37
2016-11-12T19:06:06.014Z,20.34
2016-11-12T19:11:05.647Z,20.34
2016-11-12T19:16:05.908Z,20.3
2016-11-12T19:21:05.848Z,20.25
2016-11-12T19:26:05.794Z,20.4
2016-11-12T19:31:05.140Z,20.25
2016-11-12T19:36:05.694Z,20.44
2016-11-12T19:41:05.649Z,20.37
2016-11-12T19:46:05.590Z,20.48
2016-11-12T19:51:05.247Z,20.23
2016-11-12T19:56:05.485Z,20.22
2016-11-12T20:01:05.429Z,20.35
2016-11-12T20:06:05.083Z,20.38
2016-11-12T20:11:05.336Z,20.26
2016-11-12T20:16:04.978Z,20.32
2016-11-12T20:21:05.227Z,20.29
2016-11-12T20:26:05.185Z,20.29
2016-11-12T20:31:05.133Z,20.34
2016-11-12T20:36:05.075Z,20.34
2016-11-12T20:41:05.035Z,20.35
2016-11-12T20:46:04.671Z,20.41
2016-11-12T20:51:04.920Z,20.44
2016-11-12T20:56:04.571Z,20.44
2016-11-12T21:01:04.832Z,20.51
2016-11-12T21:06:04.166Z,20.44
2016-11-12T21:11:04.421Z,20.46
2016-11-12T21:16:04.374Z,20.49
2016-11-12T21:21:04.014Z,20.54
2016-11-12T21:26:04.572Z,20.57
2016-11-12T21:31:04.224Z,20.67
2016-11-12T21:36:04.184Z,20.56
2016-11-12T21:41:04.426Z,20.51
2016-11-12T21:46:04.375Z,20.61
2016-11-12T21:51:04.025Z,20.64
2016-11-12T21:56:03.979Z,20.68
2016-11-12T22:01:03.927Z,20.64
2016-11-12T22:06:03.871Z,20.72
2016-11-12T22:11:04.123Z,20.66
2016-11-12T22:16:04.077Z,20.67
2016-11-12T22:21:04.026Z,20.71
2016-11-12T22:26:03.973Z,20.76
2016-11-12T22:31:03.314Z,20.68
2016-11-12T22:36:03.872Z,20.72
2016-11-12T22:41:03.517Z,20.76
2016-11-12T22:46:03.495Z,20.63
2016-11-12T22:51:03.417Z,20.58
2016-11-12T22:56:03.669Z,20.54
2016-11-12T23:01:03.309Z,20.48
2016-11-12T23:06:03.566Z,20.41
2016-11-12T23:11:03.512Z,20.37
2016-11-12T23:16:03.455Z,20.26
2016-11-12T23:21:03.410Z,20.2
2016-11-12T23:26:03.058Z,20.12
2016-11-12T23:31:03.311Z,19.97
2016-11-12T23:36:02.953Z,19.89
2016-11-12T23:41:02.899Z,19.79
2016-11-12T23:46:03.148Z,19.64
2016-11-12T23:51:02.791Z,19.53
2016-11-12T23:56:03.041Z,19.43
